createdAt,value
2018-12-15T00:00:44.951Z,9.43
2018-12-15T00:03:15.909Z,8.23
2018-12-15T00:05:47.149Z,7.97
2018-12-15T00:08:17.927Z,8.70
2018-12-15T00:10:48.701Z,9.43
2018-12-15T00:13:19.616Z,10.10
2018-12-15T00:15:50.387Z,8.00
2018-12-15T00:18:21.239Z,7.60
2018-12-15T00:20:52.082Z,8.33
2018-12-15T00:23:22.747Z,7.93
2018-12-15T00:25:53.494Z,8.33
2018-12-15T00:28:24.341Z,8.47
2018-12-15T00:30:55.145Z,6.80
2018-12-15T00:33:27.939Z,7.73
2018-12-15T00:35:58.671Z,7.40
2018-12-15T00:38:29.671Z,6.87
2018-12-15T00:41:00.448Z,7.73
2018-12-15T00:43:31.322Z,8.70
2018-12-15T00:46:02.054Z,9.00
2018-12-15T00:48:32.858Z,8.97
2018-12-15T00:51:03.651Z,8.80
2018-12-15T00:53:34.810Z,7.40
2018-12-15T00:56:06.697Z,7.97
2018-12-15T00:58:37.430Z,7.83
2018-12-15T01:01:08.176Z,7.37
2018-12-15T01:03:38.933Z,8.27
2018-12-15T01:06:09.850Z,7.13
2018-12-15T01:08:40.912Z,6.77
2018-12-15T01:11:11.798Z,6.17
2018-12-15T01:13:42.791Z,6.63
2018-12-15T01:16:13.608Z,6.83
2018-12-15T01:18:44.627Z,7.63
2018-12-15T01:21:15.514Z,7.13
2018-12-15T01:23:46.519Z,6.27
2018-12-15T01:26:17.407Z,6.97
2018-12-15T01:28:48.442Z,7.30
2018-12-15T01:31:19.785Z,7.63
2018-12-15T01:33:50.642Z,7.23
2018-12-15T01:36:21.596Z,8.80
2018-12-15T01:38:52.881Z,8.30
2018-12-15T01:41:23.614Z,7.03
2018-12-15T01:43:54.251Z,8.27
2018-12-15T01:46:25.377Z,8.03
2018-12-15T01:48:56.320Z,7.90
2018-12-15T01:51:27.002Z,7.37
2018-12-15T01:53:58.050Z,6.80
2018-12-15T01:56:28.844Z,6.53
2018-12-15T01:58:59.683Z,6.93
2018-12-15T02:01:30.637Z,6.60
2018-12-15T02:04:01.545Z,8.10
2018-12-15T02:06:32.274Z,6.93
2018-12-15T02:09:04.623Z,7.53
2018-12-15T02:11:35.432Z,6.97
2018-12-15T02:14:06.927Z,6.50
2018-12-15T02:16:37.720Z,7.00
2018-12-15T02:19:08.417Z,6.37
2018-12-15T02:21:39.395Z,6.33
2018-12-15T02:24:10.491Z,8.37
2018-12-15T02:26:41.387Z,6.77
2018-12-15T02:29:14.660Z,7.60
2018-12-15T02:31:46.231Z,6.30
2018-12-15T02:34:16.896Z,7.10
2018-12-15T02:36:48.204Z,6.60
2018-12-15T02:39:18.842Z,7.53
2018-12-15T02:41:49.560Z,7.00
2018-12-15T02:44:20.386Z,7.07
2018-12-15T02:46:51.199Z,5.60
2018-12-15T02:49:21.854Z,8.60
2018-12-15T02:51:52.643Z,6.87
2018-12-15T02:54:23.360Z,5.57
2018-12-15T02:56:54.375Z,6.77
2018-12-15T02:59:25.185Z,6.07
2018-12-15T03:01:55.956Z,6.93
2018-12-15T03:04:26.669Z,7.70
2018-12-15T03:06:57.416Z,6.50
2018-12-15T03:09:28.215Z,8.17
2018-12-15T03:11:58.898Z,7.23
2018-12-15T03:14:29.991Z,7.47
2018-12-15T03:17:07.280Z,6.80
2018-12-15T03:19:37.960Z,6.43
2018-12-15T03:22:08.938Z,6.97
2018-12-15T03:24:39.592Z,8.03
2018-12-15T03:27:10.361Z,7.13
2018-12-15T03:29:41.108Z,6.80
2018-12-15T03:32:12.128Z,9.90
2018-12-15T03:34:43.104Z,7.83
2018-12-15T03:37:13.803Z,8.23
2018-12-15T03:39:44.496Z,6.70
2018-12-15T03:42:15.143Z,7.13
2018-12-15T03:44:46.073Z,6.87
2018-12-15T03:47:17.064Z,7.50
2018-12-15T03:49:47.940Z,6.87
2018-12-15T03:52:18.727Z,7.23
2018-12-15T03:54:49.403Z,6.37
2018-12-15T03:57:20.219Z,9.00
2018-12-15T03:59:51.381Z,7.73
2018-12-15T04:02:22.788Z,7.23
2018-12-15T04:04:54.191Z,9.03
2018-12-15T04:07:24.919Z,7.93
2018-12-15T04:09:55.587Z,7.97
2018-12-15T04:12:26.664Z,7.27
2018-12-15T04:14:58.674Z,9.23
2018-12-15T04:17:29.508Z,8.00
2018-12-15T04:20:00.472Z,8.33
2018-12-15T04:22:31.339Z,7.67
2018-12-15T04:25:01.969Z,7.47
2018-12-15T04:27:33.290Z,8.33
2018-12-15T04:30:05.199Z,11.60
2018-12-15T04:32:36.053Z,8.37
2018-12-15T04:35:07.519Z,8.73
2018-12-15T04:37:38.260Z,8.60
2018-12-15T04:40:09.892Z,8.17
2018-12-15T04:42:40.748Z,9.20
2018-12-15T04:45:11.810Z,7.87
2018-12-15T04:47:42.613Z,8.90
2018-12-15T04:50:13.325Z,7.90
2018-12-15T04:52:44.194Z,8.67
2018-12-15T04:55:15.267Z,10.57
2018-12-15T04:57:46.346Z,9.37
2018-12-15T05:00:17.024Z,9.70
2018-12-15T05:02:48.060Z,8.73
2018-12-15T05:05:18.845Z,8.93
2018-12-15T05:07:49.539Z,10.07
2018-12-15T05:10:20.475Z,8.57
2018-12-15T05:12:51.159Z,8.60
2018-12-15T05:15:22.027Z,8.77
2018-12-15T05:17:52.824Z,7.93
2018-12-15T05:20:23.715Z,8.00
2018-12-15T05:22:54.455Z,9.13
2018-12-15T05:25:25.343Z,9.20
2018-12-15T05:27:55.989Z,10.67
2018-12-15T05:30:26.707Z,8.47
2018-12-15T05:32:57.374Z,8.90
2018-12-15T05:35:28.303Z,9.73
2018-12-15T05:37:59.295Z,9.20
2018-12-15T05:40:30.100Z,9.10
2018-12-15T05:43:00.940Z,9.27
2018-12-15T05:45:31.651Z,9.13
2018-12-15T05:48:02.397Z,9.17
2018-12-15T05:50:33.165Z,9.83
2018-12-15T05:53:03.934Z,8.50
2018-12-15T05:55:34.571Z,7.40
2018-12-15T05:58:05.664Z,8.33
2018-12-15T06:00:36.331Z,10.23
2018-12-15T06:03:07.015Z,10.07
2018-12-15T06:05:38.278Z,8.90
2018-12-15T06:08:08.898Z,8.33
2018-12-15T06:10:40.190Z,9.00
2018-12-15T06:13:11.003Z,9.10
2018-12-15T06:15:43.469Z,8.57
2018-12-15T06:18:14.323Z,9.80
2018-12-15T06:20:45.267Z,8.83
2018-12-15T06:23:16.087Z,8.43
2018-12-15T06:25:47.158Z,9.37
2018-12-15T06:28:18.116Z,9.03
2018-12-15T06:30:48.801Z,9.03
2018-12-15T06:33:19.455Z,9.53
2018-12-15T06:35:50.143Z,8.10
2018-12-15T06:38:20.923Z,7.87
2018-12-15T06:40:51.636Z,9.10
2018-12-15T06:43:23.203Z,8.40
2018-12-15T06:45:54.389Z,11.27
2018-12-15T06:48:25.088Z,10.33
2018-12-15T06:50:56.107Z,9.07
2018-12-15T06:53:27.001Z,9.07
2018-12-15T06:55:57.751Z,10.57
2018-12-15T06:58:28.472Z,10.57
2018-12-15T07:00:59.160Z,8.50
2018-12-15T07:03:29.871Z,8.93
2018-12-15T07:06:01.661Z,8.73
2018-12-15T07:08:32.305Z,10.10
2018-12-15T07:11:04.230Z,11.07
2018-12-15T07:13:34.884Z,10.17
2018-12-15T07:16:06.223Z,11.23
2018-12-15T07:18:37.034Z,11.37
2018-12-15T07:21:07.985Z,10.27
2018-12-15T07:23:38.735Z,10.47
2018-12-15T07:26:09.406Z,10.20
2018-12-15T07:28:40.224Z,10.30
2018-12-15T07:31:11.420Z,10.60
2018-12-15T07:33:42.188Z,9.50
2018-12-15T07:36:13.015Z,10.27
2018-12-15T07:38:43.747Z,9.50
2018-12-15T07:41:14.564Z,11.00
2018-12-15T07:43:45.396Z,11.57
2018-12-15T07:46:16.206Z,10.00
2018-12-15T07:48:51.290Z,9.77
2018-12-15T07:51:20.587Z,9.10
2018-12-15T07:53:51.379Z,11.47
2018-12-15T07:56:26.917Z,12.30
2018-12-15T07:58:57.744Z,10.90
2018-12-15T08:01:28.889Z,10.77
2018-12-15T08:03:59.643Z,9.83
2018-12-15T08:06:30.395Z,10.70
2018-12-15T08:09:01.101Z,9.30
2018-12-15T08:11:38.138Z,12.53
2018-12-15T08:14:11.512Z,8.70
2018-12-15T08:16:42.379Z,10.43
2018-12-15T08:19:13.087Z,12.60
2018-12-15T08:21:43.801Z,11.17
2018-12-15T08:24:14.801Z,10.67
2018-12-15T08:26:45.593Z,12.63
2018-12-15T08:29:16.346Z,12.07
2018-12-15T08:31:47.127Z,12.57
2018-12-15T08:34:17.900Z,12.00
2018-12-15T08:36:48.837Z,11.90
2018-12-15T08:39:19.679Z,11.20
2018-12-15T08:41:50.390Z,11.30
2018-12-15T08:44:21.446Z,11.27
2018-12-15T08:46:52.667Z,11.77
2018-12-15T08:49:23.554Z,12.83
2018-12-15T08:51:54.411Z,12.70
2018-12-15T08:54:25.253Z,10.57
2018-12-15T08:56:56.248Z,9.83
2018-12-15T08:59:27.144Z,12.07
2018-12-15T09:01:58.823Z,12.77
2018-12-15T09:04:29.773Z,11.07
2018-12-15T09:07:00.462Z,10.90
2018-12-15T09:09:31.324Z,11.10
2018-12-15T09:12:01.986Z,10.80
2018-12-15T09:14:32.799Z,10.37
2018-12-15T09:17:03.642Z,12.23
2018-12-15T09:19:34.484Z,15.00
2018-12-15T09:22:11.615Z,14.07
2018-12-15T09:24:38.234Z,20.13
2018-12-15T09:27:09.033Z,12.40
2018-12-15T09:29:40.139Z,15.73
2018-12-15T09:32:10.896Z,13.00
2018-12-15T09:34:46.887Z,12.40
2018-12-15T09:37:17.732Z,12.53
2018-12-15T09:39:48.572Z,13.17
2018-12-15T09:42:19.422Z,13.53
2018-12-15T09:44:50.912Z,12.47
2018-12-15T09:47:21.764Z,13.17
2018-12-15T09:49:52.589Z,15.43
2018-12-15T09:52:23.487Z,12.80
2018-12-15T09:54:54.450Z,14.50
2018-12-15T09:57:26.018Z,14.07
2018-12-15T09:59:56.969Z,13.47
2018-12-15T10:02:28.418Z,15.00
2018-12-15T10:05:00.006Z,18.07
2018-12-15T10:07:30.911Z,13.27
2018-12-15T10:10:02.102Z,13.60
2018-12-15T10:12:32.938Z,12.97
2018-12-15T10:15:05.651Z,13.03
2018-12-15T10:17:36.945Z,12.50
2018-12-15T10:20:09.168Z,14.63
2018-12-15T10:22:39.898Z,13.63
2018-12-15T10:25:10.854Z,11.97
2018-12-15T10:27:41.711Z,11.03
2018-12-15T10:30:18.595Z,14.10
2018-12-15T10:32:53.694Z,11.50
2018-12-15T10:35:25.491Z,11.17
2018-12-15T10:37:56.281Z,14.17
2018-12-15T10:40:27.162Z,14.60
2018-12-15T10:42:58.239Z,14.17
2018-12-15T10:45:29.182Z,12.40
2018-12-15T10:48:00.030Z,14.13
2018-12-15T10:50:30.742Z,10.80
2018-12-15T10:53:01.503Z,13.50
2018-12-15T10:55:32.227Z,12.20
2018-12-15T10:58:03.010Z,12.67
2018-12-15T11:00:38.916Z,13.73
2018-12-15T11:03:11.192Z,12.77
2018-12-15T11:05:42.980Z,12.10
2018-12-15T11:08:14.087Z,12.60
2018-12-15T11:10:45.086Z,12.13
2018-12-15T11:13:15.931Z,12.40
2018-12-15T11:15:46.781Z,12.97
2018-12-15T11:18:17.660Z,13.27
2018-12-15T11:20:49.441Z,13.17
2018-12-15T11:23:20.901Z,13.83
2018-12-15T11:25:51.628Z,13.83
2018-12-15T11:28:22.416Z,12.87
2018-12-15T11:30:53.276Z,13.00
2018-12-15T11:33:24.211Z,12.13
2018-12-15T11:35:55.492Z,13.07
2018-12-15T11:38:26.533Z,13.70
2018-12-15T11:40:57.398Z,12.60
2018-12-15T11:43:28.171Z,13.63
2018-12-15T11:45:58.969Z,14.77
2018-12-15T11:48:29.928Z,14.23
2018-12-15T11:51:00.781Z,13.50
2018-12-15T11:53:31.716Z,17.27
2018-12-15T11:56:03.066Z,14.40
2018-12-15T11:58:33.985Z,13.77
2018-12-15T12:01:06.250Z,16.87
2018-12-15T12:03:37.054Z,14.63
2018-12-15T12:06:07.824Z,14.00
2018-12-15T12:08:38.689Z,16.43
2018-12-15T12:11:09.631Z,13.67
2018-12-15T12:13:40.475Z,13.73
2018-12-15T12:16:11.667Z,15.17
2018-12-15T12:18:42.878Z,13.30
2018-12-15T12:21:13.877Z,13.87
2018-12-15T12:23:44.604Z,13.13
2018-12-15T12:26:15.940Z,13.70
2018-12-15T12:28:47.361Z,13.33
2018-12-15T12:31:18.213Z,15.10
2018-12-15T12:33:49.141Z,15.07
2018-12-15T12:36:20.124Z,13.83
2018-12-15T12:38:52.219Z,14.17
2018-12-15T12:41:23.267Z,13.77
2018-12-15T12:43:54.062Z,12.43
2018-12-15T12:46:24.927Z,14.03
2018-12-15T12:48:55.789Z,15.17
2018-12-15T12:51:27.051Z,11.93
2018-12-15T12:53:57.723Z,11.43
2018-12-15T12:56:28.535Z,13.47
2018-12-15T12:59:00.231Z,12.30
2018-12-15T13:01:30.910Z,13.13
2018-12-15T13:04:02.141Z,12.47
2018-12-15T13:06:33.034Z,10.60
2018-12-15T13:09:06.408Z,12.53
2018-12-15T13:11:37.331Z,12.13
2018-12-15T13:14:08.475Z,13.07
2018-12-15T13:16:39.826Z,12.27
2018-12-15T13:19:10.930Z,11.23
2018-12-15T13:21:42.499Z,10.47
2018-12-15T13:24:13.401Z,11.17
2018-12-15T13:26:44.408Z,12.90
2018-12-15T13:29:15.130Z,11.30
2018-12-15T13:31:46.087Z,13.33
2018-12-15T13:34:17.002Z,11.97
2018-12-15T13:36:47.941Z,13.43
2018-12-15T13:39:18.750Z,11.80
2018-12-15T13:41:49.567Z,11.07
2018-12-15T13:44:20.924Z,12.33
2018-12-15T13:46:51.771Z,11.43
2018-12-15T13:49:22.608Z,10.20
2018-12-15T13:51:54.093Z,9.83
2018-12-15T13:54:25.453Z,12.33
2018-12-15T13:56:56.274Z,10.00
2018-12-15T13:59:27.680Z,13.63
2018-12-15T14:01:59.265Z,12.23
2018-12-15T14:04:30.055Z,10.37
2018-12-15T14:07:01.144Z,10.90
2018-12-15T14:09:33.588Z,11.30
2018-12-15T14:12:04.785Z,11.20
2018-12-15T14:14:35.610Z,10.53
2018-12-15T14:17:06.921Z,10.57
2018-12-15T14:19:37.965Z,10.97
2018-12-15T14:22:08.866Z,11.27
2018-12-15T14:24:40.079Z,10.13
2018-12-15T14:27:11.036Z,11.43
2018-12-15T14:29:41.924Z,11.23
2018-12-15T14:32:12.682Z,10.53
2018-12-15T14:34:43.507Z,9.20
2018-12-15T14:37:14.446Z,11.00
2018-12-15T14:39:45.663Z,10.33
2018-12-15T14:42:16.646Z,12.23
2018-12-15T14:44:47.448Z,8.83
2018-12-15T14:47:18.218Z,12.73
2018-12-15T14:49:48.988Z,10.93
2018-12-15T14:52:20.258Z,9.90
2018-12-15T14:54:50.966Z,10.13
2018-12-15T14:57:25.822Z,9.03
2018-12-15T14:59:56.697Z,10.43
2018-12-15T15:02:27.986Z,8.77
2018-12-15T15:04:58.756Z,11.00
2018-12-15T15:07:29.529Z,9.87
2018-12-15T15:10:00.374Z,10.83
2018-12-15T15:12:31.317Z,10.17
2018-12-15T15:15:02.553Z,11.33
2018-12-15T15:17:33.462Z,10.57
2018-12-15T15:20:06.212Z,10.73
2018-12-15T15:22:37.315Z,12.10
2018-12-15T15:25:08.406Z,9.43
2018-12-15T15:27:39.254Z,11.23
2018-12-15T15:30:12.115Z,10.37
2018-12-15T15:32:42.979Z,11.67
2018-12-15T15:35:13.770Z,8.47
2018-12-15T15:37:44.532Z,8.90
2018-12-15T15:40:15.498Z,9.07
2018-12-15T15:42:46.271Z,10.50
2018-12-15T15:45:17.031Z,11.50
2018-12-15T15:47:47.961Z,11.27
2018-12-15T15:50:18.809Z,10.80
2018-12-15T15:52:49.696Z,10.27
2018-12-15T15:55:20.578Z,11.80
2018-12-15T15:57:51.465Z,10.63
2018-12-15T16:00:22.473Z,11.53
2018-12-15T16:02:53.733Z,10.80
2018-12-15T16:05:26.407Z,10.00
2018-12-15T16:07:57.209Z,10.73
2018-12-15T16:10:28.044Z,10.30
2018-12-15T16:12:58.929Z,11.17
2018-12-15T16:15:30.041Z,11.23
2018-12-15T16:18:00.877Z,12.63
2018-12-15T16:20:32.941Z,11.33
2018-12-15T16:23:03.927Z,11.50
2018-12-15T16:25:35.242Z,11.43
2018-12-15T16:28:06.382Z,12.00
2018-12-15T16:30:37.245Z,10.83
2018-12-15T16:33:08.389Z,12.30
2018-12-15T16:35:39.334Z,11.27
2018-12-15T16:38:16.676Z,12.07
2018-12-15T16:40:47.788Z,10.93
2018-12-15T16:43:18.683Z,10.90
2018-12-15T16:45:49.814Z,11.33
2018-12-15T16:48:20.640Z,9.10
2018-12-15T16:50:51.539Z,11.47
2018-12-15T16:53:23.327Z,10.13
2018-12-15T16:55:54.209Z,9.57
2018-12-15T16:58:25.525Z,9.17
2018-12-15T17:00:56.803Z,10.67
2018-12-15T17:03:30.463Z,10.47
2018-12-15T17:06:00.948Z,12.23
2018-12-15T17:08:31.742Z,10.33
2018-12-15T17:11:02.470Z,11.47
2018-12-15T17:13:33.306Z,9.27
2018-12-15T17:16:04.573Z,10.87
2018-12-15T17:18:35.591Z,10.80
2018-12-15T17:21:07.012Z,9.40
2018-12-15T17:23:37.942Z,10.60
2018-12-15T17:26:09.511Z,9.93
2018-12-15T17:28:40.401Z,13.07
2018-12-15T17:31:11.364Z,11.63
2018-12-15T17:33:42.556Z,10.87
2018-12-15T17:36:13.458Z,11.80
2018-12-15T17:38:44.581Z,11.33
2018-12-15T17:41:15.630Z,10.97
2018-12-15T17:43:47.057Z,11.87
2018-12-15T17:46:17.776Z,11.70
2018-12-15T17:48:49.153Z,12.27
2018-12-15T17:51:20.346Z,11.60
2018-12-15T17:53:51.128Z,10.77
2018-12-15T17:56:21.943Z,10.80
2018-12-15T17:58:52.722Z,12.33
2018-12-15T18:01:23.560Z,11.63
2018-12-15T18:03:54.298Z,10.83
2018-12-15T18:06:25.463Z,12.23
2018-12-15T18:08:56.244Z,9.90
2018-12-15T18:11:27.150Z,10.67
2018-12-15T18:13:57.876Z,12.47
2018-12-15T18:16:28.746Z,10.27
2018-12-15T18:18:59.862Z,11.60
2018-12-15T18:21:30.713Z,12.33
2018-12-15T18:24:01.483Z,12.87
2018-12-15T18:26:32.214Z,12.97
2018-12-15T18:29:03.060Z,14.47
2018-12-15T18:31:34.047Z,13.87
2018-12-15T18:34:04.946Z,13.63
2018-12-15T18:36:35.673Z,9.60
2018-12-15T18:39:08.948Z,12.63
2018-12-15T18:41:39.740Z,15.87
2018-12-15T18:44:10.762Z,11.50
2018-12-15T18:46:41.796Z,11.80
2018-12-15T18:49:12.712Z,12.27
2018-12-15T18:51:43.985Z,11.33
2018-12-15T18:54:14.814Z,11.93
2018-12-15T18:56:45.776Z,13.17
2018-12-15T18:59:17.480Z,12.93
2018-12-15T19:01:48.264Z,11.03
2018-12-15T19:04:20.492Z,13.03
2018-12-15T19:06:51.404Z,13.17
2018-12-15T19:09:22.193Z,11.67
2018-12-15T19:11:52.989Z,11.07
2018-12-15T19:14:24.370Z,13.00
2018-12-15T19:16:55.693Z,12.77
2018-12-15T19:19:26.619Z,11.03
2018-12-15T19:21:57.341Z,13.57
2018-12-15T19:24:28.270Z,12.87
2018-12-15T19:26:59.065Z,13.33
2018-12-15T19:29:30.184Z,12.97
2018-12-15T19:32:01.038Z,12.63
2018-12-15T19:34:31.968Z,13.50
2018-12-15T19:37:02.869Z,12.70
2018-12-15T19:39:33.771Z,12.77
2018-12-15T19:42:04.908Z,14.33
2018-12-15T19:44:35.748Z,9.97
2018-12-15T19:47:06.525Z,11.60
2018-12-15T19:49:37.516Z,14.10
2018-12-15T19:52:08.371Z,12.83
2018-12-15T19:54:39.172Z,11.63
2018-12-15T19:57:10.387Z,11.20
2018-12-15T19:59:41.161Z,14.07
2018-12-15T20:02:12.050Z,15.47
2018-12-15T20:04:42.880Z,12.13
2018-12-15T20:07:14.396Z,12.50
2018-12-15T20:09:45.083Z,13.83
2018-12-15T20:12:16.165Z,12.93
2018-12-15T20:14:47.084Z,13.77
2018-12-15T20:17:18.067Z,12.63
2018-12-15T20:19:48.883Z,13.07
2018-12-15T20:22:19.613Z,14.13
2018-12-15T20:24:50.936Z,14.33
2018-12-15T20:27:21.829Z,11.73
2018-12-15T20:29:52.700Z,15.40
2018-12-15T20:32:23.495Z,15.80
2018-12-15T20:34:54.374Z,12.80
2018-12-15T20:37:25.204Z,13.83
2018-12-15T20:39:56.335Z,14.83
2018-12-15T20:42:27.306Z,13.43
2018-12-15T20:44:58.100Z,12.90
2018-12-15T20:47:28.984Z,13.23
2018-12-15T20:49:59.859Z,13.83
2018-12-15T20:52:30.606Z,14.47
2018-12-15T20:55:01.404Z,14.13
2018-12-15T20:57:32.281Z,16.50
2018-12-15T21:00:03.805Z,14.53
2018-12-15T21:02:34.950Z,13.13
2018-12-15T21:05:07.855Z,13.73
2018-12-15T21:07:38.675Z,15.80
2018-12-15T21:10:10.477Z,15.67
2018-12-15T21:12:41.201Z,15.73
2018-12-15T21:15:23.647Z,16.10
2018-12-15T21:17:54.567Z,14.17
2018-12-15T21:20:25.633Z,14.23
2018-12-15T21:22:56.895Z,14.73
2018-12-15T21:25:28.005Z,12.73
2018-12-15T21:27:59.313Z,12.73
2018-12-15T21:30:30.313Z,13.50
2018-12-15T21:33:01.336Z,13.23
2018-12-15T21:35:32.612Z,14.87
2018-12-15T21:38:03.490Z,17.23
2018-12-15T21:40:34.384Z,17.03
2018-12-15T21:43:05.441Z,15.57
2018-12-15T21:45:36.330Z,16.17
2018-12-15T21:48:07.214Z,14.20
2018-12-15T21:50:38.115Z,15.43
2018-12-15T21:53:08.994Z,17.70
2018-12-15T21:55:40.043Z,15.53
2018-12-15T21:58:10.985Z,15.20
2018-12-15T22:00:42.623Z,12.93
2018-12-15T22:03:13.734Z,11.57
2018-12-15T22:05:44.738Z,14.93
2018-12-15T22:08:15.601Z,15.70
2018-12-15T22:10:48.081Z,13.33
2018-12-15T22:13:18.863Z,12.43
2018-12-15T22:15:50.382Z,12.90
2018-12-15T22:18:21.191Z,12.73
2018-12-15T22:20:53.023Z,16.27
2018-12-15T22:23:23.864Z,12.67
2018-12-15T22:25:54.823Z,14.10
2018-12-15T22:28:25.813Z,12.63
2018-12-15T22:30:56.665Z,13.57
2018-12-15T22:33:27.684Z,12.03
2018-12-15T22:35:58.972Z,13.57
2018-12-15T22:38:29.824Z,12.43
2018-12-15T22:41:00.786Z,13.57
2018-12-15T22:43:31.484Z,11.93
2018-12-15T22:46:02.627Z,10.57
2018-12-15T22:48:33.815Z,12.33
2018-12-15T22:51:04.923Z,10.13
2018-12-15T22:53:35.759Z,11.93
2018-12-15T22:56:07.089Z,12.50
2018-12-15T22:58:37.917Z,11.30
2018-12-15T23:01:11.959Z,13.87
2018-12-15T23:03:42.810Z,11.77
2018-12-15T23:06:13.659Z,12.37
2018-12-15T23:08:45.027Z,11.70
2018-12-15T23:11:15.974Z,12.37
2018-12-15T23:13:46.865Z,11.70
2018-12-15T23:16:17.829Z,13.67
2018-12-15T23:18:48.829Z,12.20
2018-12-15T23:21:20.111Z,12.17
2018-12-15T23:23:51.226Z,10.60
2018-12-15T23:26:22.624Z,12.70
2018-12-15T23:28:53.536Z,13.47
2018-12-15T23:31:24.267Z,11.20
2018-12-15T23:33:55.218Z,13.47
2018-12-15T23:36:26.052Z,11.73
2018-12-15T23:38:56.852Z,11.17
2018-12-15T23:41:27.572Z,13.00
2018-12-15T23:43:58.687Z,13.30
2018-12-15T23:46:29.448Z,11.47
2018-12-15T23:49:01.204Z,13.10
2018-12-15T23:51:32.095Z,13.13
2018-12-15T23:54:03.325Z,13.63
2018-12-15T23:56:34.293Z,13.13
2018-12-15T23:59:05.251Z,12.77
